sensor_id;sensor_type;location;lat;lon;timestamp;P1;durP1;ratioP1;P2;durP2;ratioP2
31716;SDS011;18301;51.076;17.046;2023-05-29T00:04:00;7.18;;;3.58;;
31716;SDS011;18301;51.076;17.046;2023-05-29T00:09:02;7.20;;;3.35;;
31716;SDS011;18301;51.076;17.046;2023-05-29T00:14:03;6.22;;;3.53;;
31716;SDS011;18301;51.076;17.046;2023-05-29T00:19:06;7.57;;;4.18;;
31716;SDS011;18301;51.076;17.046;2023-05-29T00:24:10;8.38;;;3.70;;
31716;SDS011;18301;51.076;17.046;2023-05-29T00:29:11;5.65;;;3.50;;
31716;SDS011;18301;51.076;17.046;2023-05-29T00:34:13;8.90;;;3.70;;
31716;SDS011;18301;51.076;17.046;2023-05-29T00:39:14;6.70;;;3.63;;
31716;SDS011;18301;51.076;17.046;2023-05-29T00:44:20;6.47;;;3.53;;
31716;SDS011;18301;51.076;17.046;2023-05-29T00:49:22;11.35;;;4.63;;
31716;SDS011;18301;51.076;17.046;2023-05-29T00:54:28;7.60;;;3.80;;
31716;SDS011;18301;51.076;17.046;2023-05-29T00:59:31;6.18;;;3.75;;
31716;SDS011;18301;51.076;17.046;2023-05-29T01:04:34;8.85;;;3.67;;
31716;SDS011;18301;51.076;17.046;2023-05-29T01:09:36;7.32;;;3.85;;
31716;SDS011;18301;51.076;17.046;2023-05-29T01:25:24;8.27;;;3.92;;
31716;SDS011;18301;51.076;17.046;2023-05-29T01:30:36;8.43;;;3.80;;
31716;SDS011;18301;51.076;17.046;2023-05-29T01:35:39;6.85;;;4.13;;
31716;SDS011;18301;51.076;17.046;2023-05-29T01:40:41;9.40;;;3.92;;
31716;SDS011;18301;51.076;17.046;2023-05-29T01:45:42;9.50;;;4.15;;
31716;SDS011;18301;51.076;17.046;2023-05-29T01:50:44;7.60;;;3.60;;
31716;SDS011;18301;51.076;17.046;2023-05-29T01:55:47;8.45;;;4.65;;
31716;SDS011;18301;51.076;17.046;2023-05-29T02:00:49;7.30;;;3.75;;
31716;SDS011;18301;51.076;17.046;2023-05-29T02:05:50;6.68;;;3.92;;
31716;SDS011;18301;51.076;17.046;2023-05-29T02:10:52;9.15;;;4.30;;
31716;SDS011;18301;51.076;17.046;2023-05-29T02:15:54;14.20;;;4.32;;
31716;SDS011;18301;51.076;17.046;2023-05-29T02:20:56;11.38;;;4.00;;
31716;SDS011;18301;51.076;17.046;2023-05-29T02:25:58;8.02;;;4.05;;
31716;SDS011;18301;51.076;17.046;2023-05-29T02:30:59;11.30;;;4.45;;
31716;SDS011;18301;51.076;17.046;2023-05-29T02:36:01;10.43;;;5.22;;
31716;SDS011;18301;51.076;17.046;2023-05-29T02:41:02;6.57;;;3.72;;
31716;SDS011;18301;51.076;17.046;2023-05-29T02:46:04;7.30;;;4.30;;
31716;SDS011;18301;51.076;17.046;2023-05-29T02:51:05;7.28;;;4.25;;
31716;SDS011;18301;51.076;17.046;2023-05-29T02:56:07;9.02;;;4.40;;
31716;SDS011;18301;51.076;17.046;2023-05-29T03:01:10;11.90;;;5.38;;
31716;SDS011;18301;51.076;17.046;2023-05-29T03:06:12;8.57;;;4.15;;
31716;SDS011;18301;51.076;17.046;2023-05-29T03:11:19;10.65;;;4.88;;
31716;SDS011;18301;51.076;17.046;2023-05-29T03:16:22;10.82;;;4.93;;
31716;SDS011;18301;51.076;17.046;2023-05-29T03:21:23;9.10;;;4.50;;
31716;SDS011;18301;51.076;17.046;2023-05-29T03:26:25;10.68;;;5.20;;
31716;SDS011;18301;51.076;17.046;2023-05-29T03:31:27;11.15;;;4.70;;
31716;SDS011;18301;51.076;17.046;2023-05-29T03:36:29;9.73;;;5.20;;
31716;SDS011;18301;51.076;17.046;2023-05-29T03:41:30;15.57;;;5.68;;
31716;SDS011;18301;51.076;17.046;2023-05-29T03:46:32;10.60;;;5.70;;
31716;SDS011;18301;51.076;17.046;2023-05-29T03:51:33;11.93;;;5.03;;
31716;SDS011;18301;51.076;17.046;2023-05-29T03:56:35;11.45;;;5.57;;
31716;SDS011;18301;51.076;17.046;2023-05-29T04:01:37;11.65;;;5.45;;
31716;SDS011;18301;51.076;17.046;2023-05-29T04:06:38;10.60;;;5.55;;
31716;SDS011;18301;51.076;17.046;2023-05-29T04:11:40;12.25;;;6.05;;
31716;SDS011;18301;51.076;17.046;2023-05-29T04:16:42;10.88;;;5.50;;
31716;SDS011;18301;51.076;17.046;2023-05-29T04:21:44;13.13;;;5.80;;
31716;SDS011;18301;51.076;17.046;2023-05-29T04:26:46;14.75;;;6.43;;
31716;SDS011;18301;51.076;17.046;2023-05-29T04:31:48;12.55;;;6.80;;
31716;SDS011;18301;51.076;17.046;2023-05-29T04:36:49;11.80;;;6.68;;
31716;SDS011;18301;51.076;17.046;2023-05-29T04:41:51;13.15;;;6.78;;
31716;SDS011;18301;51.076;17.046;2023-05-29T04:46:53;12.85;;;6.60;;
31716;SDS011;18301;51.076;17.046;2023-05-29T04:51:54;14.73;;;7.07;;
31716;SDS011;18301;51.076;17.046;2023-05-29T04:56:56;16.80;;;6.65;;
31716;SDS011;18301;51.076;17.046;2023-05-29T05:01:57;16.42;;;6.95;;
31716;SDS011;18301;51.076;17.046;2023-05-29T05:06:59;18.70;;;6.65;;
31716;SDS011;18301;51.076;17.046;2023-05-29T05:12:00;14.57;;;6.22;;
31716;SDS011;18301;51.076;17.046;2023-05-29T05:17:02;12.63;;;6.00;;
31716;SDS011;18301;51.076;17.046;2023-05-29T05:22:04;13.50;;;5.28;;
31716;SDS011;18301;51.076;17.046;2023-05-29T05:27:05;10.73;;;4.50;;
31716;SDS011;18301;51.076;17.046;2023-05-29T05:32:07;12.13;;;4.80;;
31716;SDS011;18301;51.076;17.046;2023-05-29T05:37:09;12.27;;;4.82;;
31716;SDS011;18301;51.076;17.046;2023-05-29T05:42:11;9.82;;;4.43;;
31716;SDS011;18301;51.076;17.046;2023-05-29T05:47:12;7.68;;;4.50;;
31716;SDS011;18301;51.076;17.046;2023-05-29T05:52:14;11.07;;;4.47;;
31716;SDS011;18301;51.076;17.046;2023-05-29T05:57:16;8.95;;;4.30;;
31716;SDS011;18301;51.076;17.046;2023-05-29T06:02:17;12.43;;;5.03;;
31716;SDS011;18301;51.076;17.046;2023-05-29T06:07:19;9.10;;;3.78;;
31716;SDS011;18301;51.076;17.046;2023-05-29T06:12:20;10.68;;;5.10;;
31716;SDS011;18301;51.076;17.046;2023-05-29T06:17:22;11.35;;;4.55;;
31716;SDS011;18301;51.076;17.046;2023-05-29T06:22:24;8.75;;;4.78;;
31716;SDS011;18301;51.076;17.046;2023-05-29T06:27:26;10.00;;;4.45;;
31716;SDS011;18301;51.076;17.046;2023-05-29T06:32:27;9.63;;;4.10;;
31716;SDS011;18301;51.076;17.046;2023-05-29T06:37:29;14.85;;;4.07;;
31716;SDS011;18301;51.076;17.046;2023-05-29T06:42:31;11.15;;;4.30;;
31716;SDS011;18301;51.076;17.046;2023-05-29T06:47:33;9.25;;;4.13;;
31716;SDS011;18301;51.076;17.046;2023-05-29T06:52:34;14.15;;;3.83;;
31716;SDS011;18301;51.076;17.046;2023-05-29T06:57:36;7.22;;;4.28;;
31716;SDS011;18301;51.076;17.046;2023-05-29T07:02:37;8.77;;;3.28;;
31716;SDS011;18301;51.076;17.046;2023-05-29T07:07:39;8.00;;;3.17;;
31716;SDS011;18301;51.076;17.046;2023-05-29T07:12:40;8.88;;;3.25;;
31716;SDS011;18301;51.076;17.046;2023-05-29T07:17:42;9.60;;;4.00;;
31716;SDS011;18301;51.076;17.046;2023-05-29T07:22:43;5.65;;;2.80;;
31716;SDS011;18301;51.076;17.046;2023-05-29T07:27:45;8.40;;;3.17;;
31716;SDS011;18301;51.076;17.046;2023-05-29T07:32:47;9.02;;;3.28;;
31716;SDS011;18301;51.076;17.046;2023-05-29T07:37:48;7.13;;;2.58;;
31716;SDS011;18301;51.076;17.046;2023-05-29T07:42:50;4.25;;;2.42;;
31716;SDS011;18301;51.076;17.046;2023-05-29T07:47:52;7.78;;;2.38;;
31716;SDS011;18301;51.076;17.046;2023-05-29T07:52:53;11.82;;;2.55;;
31716;SDS011;18301;51.076;17.046;2023-05-29T07:57:57;5.70;;;2.65;;
31716;SDS011;18301;51.076;17.046;2023-05-29T08:02:58;7.93;;;2.25;;
31716;SDS011;18301;51.076;17.046;2023-05-29T08:08:00;6.53;;;2.30;;
31716;SDS011;18301;51.076;17.046;2023-05-29T08:13:01;4.22;;;2.15;;
31716;SDS011;18301;51.076;17.046;2023-05-29T08:18:03;3.05;;;1.70;;
31716;SDS011;18301;51.076;17.046;2023-05-29T08:23:05;4.20;;;1.70;;
31716;SDS011;18301;51.076;17.046;2023-05-29T08:28:07;5.78;;;2.47;;
31716;SDS011;18301;51.076;17.046;2023-05-29T08:33:08;2.40;;;1.83;;
31716;SDS011;18301;51.076;17.046;2023-05-29T08:38:10;6.88;;;2.25;;
31716;SDS011;18301;51.076;17.046;2023-05-29T08:43:15;2.90;;;2.00;;
31716;SDS011;18301;51.076;17.046;2023-05-29T08:48:24;6.10;;;2.08;;
31716;SDS011;18301;51.076;17.046;2023-05-29T08:53:26;7.30;;;2.15;;
31716;SDS011;18301;51.076;17.046;2023-05-29T08:58:27;3.80;;;2.22;;
31716;SDS011;18301;51.076;17.046;2023-05-29T09:03:29;3.83;;;1.80;;
31716;SDS011;18301;51.076;17.046;2023-05-29T09:08:31;4.28;;;2.00;;
31716;SDS011;18301;51.076;17.046;2023-05-29T09:13:34;7.20;;;2.13;;
31716;SDS011;18301;51.076;17.046;2023-05-29T09:18:36;5.22;;;2.20;;
31716;SDS011;18301;51.076;17.046;2023-05-29T09:23:37;5.90;;;2.28;;
31716;SDS011;18301;51.076;17.046;2023-05-29T09:28:38;3.50;;;2.15;;
31716;SDS011;18301;51.076;17.046;2023-05-29T09:33:46;3.65;;;1.90;;
31716;SDS011;18301;51.076;17.046;2023-05-29T09:38:50;6.35;;;2.30;;
31716;SDS011;18301;51.076;17.046;2023-05-29T09:43:59;7.97;;;2.28;;
31716;SDS011;18301;51.076;17.046;2023-05-29T09:49:02;5.10;;;2.67;;
31716;SDS011;18301;51.076;17.046;2023-05-29T09:54:13;7.53;;;2.75;;
31716;SDS011;18301;51.076;17.046;2023-05-29T09:59:18;11.48;;;2.50;;
31716;SDS011;18301;51.076;17.046;2023-05-29T10:04:22;11.65;;;2.70;;
31716;SDS011;18301;51.076;17.046;2023-05-29T10:09:25;4.72;;;2.65;;
31716;SDS011;18301;51.076;17.046;2023-05-29T10:14:28;4.60;;;2.45;;
31716;SDS011;18301;51.076;17.046;2023-05-29T10:19:33;6.88;;;2.95;;
31716;SDS011;18301;51.076;17.046;2023-05-29T10:24:38;6.95;;;2.50;;
31716;SDS011;18301;51.076;17.046;2023-05-29T10:29:43;5.00;;;2.85;;
31716;SDS011;18301;51.076;17.046;2023-05-29T10:40:10;4.50;;;2.70;;
31716;SDS011;18301;51.076;17.046;2023-05-29T10:50:36;4.65;;;2.33;;
31716;SDS011;18301;51.076;17.046;2023-05-29T10:55:39;4.00;;;2.28;;
31716;SDS011;18301;51.076;17.046;2023-05-29T11:00:42;5.22;;;2.45;;
31716;SDS011;18301;51.076;17.046;2023-05-29T11:11:11;5.75;;;2.45;;
31716;SDS011;18301;51.076;17.046;2023-05-29T11:16:21;4.85;;;2.30;;
31716;SDS011;18301;51.076;17.046;2023-05-29T11:26:54;6.75;;;2.60;;
31716;SDS011;18301;51.076;17.046;2023-05-29T11:31:58;7.00;;;2.35;;
31716;SDS011;18301;51.076;17.046;2023-05-29T11:37:04;3.65;;;2.67;;
31716;SDS011;18301;51.076;17.046;2023-05-29T11:42:06;3.90;;;2.47;;
31716;SDS011;18301;51.076;17.046;2023-05-29T11:47:08;5.25;;;2.72;;
31716;SDS011;18301;51.076;17.046;2023-05-29T11:52:11;6.68;;;2.40;;
31716;SDS011;18301;51.076;17.046;2023-05-29T11:57:19;4.55;;;2.30;;
31716;SDS011;18301;51.076;17.046;2023-05-29T12:02:22;6.95;;;2.65;;
31716;SDS011;18301;51.076;17.046;2023-05-29T12:07:26;5.50;;;2.38;;
31716;SDS011;18301;51.076;17.046;2023-05-29T12:12:27;3.92;;;2.63;;
31716;SDS011;18301;51.076;17.046;2023-05-29T12:17:30;7.25;;;2.72;;
31716;SDS011;18301;51.076;17.046;2023-05-29T12:22:33;4.80;;;2.78;;
31716;SDS011;18301;51.076;17.046;2023-05-29T12:27:37;3.25;;;2.30;;
31716;SDS011;18301;51.076;17.046;2023-05-29T12:32:46;5.40;;;2.60;;
31716;SDS011;18301;51.076;17.046;2023-05-29T12:37:58;6.38;;;2.47;;
31716;SDS011;18301;51.076;17.046;2023-05-29T12:43:01;5.47;;;2.72;;
31716;SDS011;18301;51.076;17.046;2023-05-29T12:48:07;5.70;;;2.42;;
31716;SDS011;18301;51.076;17.046;2023-05-29T12:53:11;4.40;;;2.72;;
31716;SDS011;18301;51.076;17.046;2023-05-29T12:58:15;5.22;;;2.50;;
31716;SDS011;18301;51.076;17.046;2023-05-29T13:03:17;4.70;;;2.60;;
31716;SDS011;18301;51.076;17.046;2023-05-29T13:08:19;3.60;;;2.42;;
31716;SDS011;18301;51.076;17.046;2023-05-29T13:13:22;3.67;;;2.33;;
31716;SDS011;18301;51.076;17.046;2023-05-29T13:18:24;4.18;;;2.10;;
31716;SDS011;18301;51.076;17.046;2023-05-29T13:23:25;6.95;;;2.70;;
31716;SDS011;18301;51.076;17.046;2023-05-29T13:28:29;4.28;;;2.38;;
31716;SDS011;18301;51.076;17.046;2023-05-29T13:33:30;5.03;;;2.70;;
31716;SDS011;18301;51.076;17.046;2023-05-29T13:38:32;6.05;;;2.30;;
31716;SDS011;18301;51.076;17.046;2023-05-29T13:43:34;6.88;;;2.47;;
31716;SDS011;18301;51.076;17.046;2023-05-29T13:48:44;4.90;;;2.58;;
31716;SDS011;18301;51.076;17.046;2023-05-29T13:53:46;2.90;;;2.17;;
31716;SDS011;18301;51.076;17.046;2023-05-29T13:58:48;5.13;;;2.50;;
31716;SDS011;18301;51.076;17.046;2023-05-29T14:03:49;4.47;;;2.35;;
31716;SDS011;18301;51.076;17.046;2023-05-29T14:08:51;3.80;;;2.50;;
31716;SDS011;18301;51.076;17.046;2023-05-29T14:13:53;3.88;;;2.70;;
31716;SDS011;18301;51.076;17.046;2023-05-29T14:18:54;3.47;;;2.50;;
31716;SDS011;18301;51.076;17.046;2023-05-29T14:23:55;4.85;;;2.55;;
31716;SDS011;18301;51.076;17.046;2023-05-29T14:28:57;4.28;;;2.40;;
31716;SDS011;18301;51.076;17.046;2023-05-29T14:34:13;5.22;;;2.50;;
31716;SDS011;18301;51.076;17.046;2023-05-29T14:39:15;5.25;;;2.70;;
31716;SDS011;18301;51.076;17.046;2023-05-29T14:44:16;4.43;;;2.45;;
31716;SDS011;18301;51.076;17.046;2023-05-29T14:49:19;4.97;;;2.88;;
31716;SDS011;18301;51.076;17.046;2023-05-29T14:54:20;5.72;;;2.80;;
31716;SDS011;18301;51.076;17.046;2023-05-29T14:59:22;3.67;;;2.50;;
31716;SDS011;18301;51.076;17.046;2023-05-29T15:04:24;8.30;;;2.63;;
31716;SDS011;18301;51.076;17.046;2023-05-29T15:09:26;5.93;;;2.75;;
31716;SDS011;18301;51.076;17.046;2023-05-29T15:14:27;6.53;;;2.83;;
31716;SDS011;18301;51.076;17.046;2023-05-29T15:19:29;4.45;;;2.80;;
31716;SDS011;18301;51.076;17.046;2023-05-29T15:24:31;5.50;;;2.72;;
31716;SDS011;18301;51.076;17.046;2023-05-29T15:29:33;6.15;;;3.45;;
31716;SDS011;18301;51.076;17.046;2023-05-29T15:34:36;4.63;;;3.22;;
31716;SDS011;18301;51.076;17.046;2023-05-29T15:39:37;6.57;;;2.90;;
31716;SDS011;18301;51.076;17.046;2023-05-29T15:44:39;5.03;;;3.00;;
31716;SDS011;18301;51.076;17.046;2023-05-29T15:49:41;5.97;;;3.42;;
31716;SDS011;18301;51.076;17.046;2023-05-29T15:54:42;3.72;;;2.75;;
31716;SDS011;18301;51.076;17.046;2023-05-29T15:59:44;8.40;;;3.67;;
31716;SDS011;18301;51.076;17.046;2023-05-29T16:04:46;4.93;;;3.00;;
31716;SDS011;18301;51.076;17.046;2023-05-29T16:10:06;5.30;;;3.47;;
31716;SDS011;18301;51.076;17.046;2023-05-29T16:15:08;5.35;;;3.58;;
31716;SDS011;18301;51.076;17.046;2023-05-29T16:20:09;9.95;;;3.65;;
31716;SDS011;18301;51.076;17.046;2023-05-29T16:25:12;7.03;;;3.80;;
31716;SDS011;18301;51.076;17.046;2023-05-29T16:30:13;6.80;;;3.70;;
31716;SDS011;18301;51.076;17.046;2023-05-29T16:35:15;5.22;;;3.15;;
31716;SDS011;18301;51.076;17.046;2023-05-29T16:40:17;8.60;;;3.42;;
31716;SDS011;18301;51.076;17.046;2023-05-29T16:45:21;6.13;;;3.20;;
31716;SDS011;18301;51.076;17.046;2023-05-29T16:50:22;6.70;;;3.42;;
31716;SDS011;18301;51.076;17.046;2023-05-29T16:55:25;7.32;;;3.70;;
31716;SDS011;18301;51.076;17.046;2023-05-29T17:00:26;5.70;;;3.28;;
31716;SDS011;18301;51.076;17.046;2023-05-29T17:05:28;9.27;;;3.65;;
31716;SDS011;18301;51.076;17.046;2023-05-29T17:10:31;5.50;;;3.45;;
31716;SDS011;18301;51.076;17.046;2023-05-29T17:15:34;6.95;;;3.70;;
31716;SDS011;18301;51.076;17.046;2023-05-29T17:20:35;8.10;;;4.50;;
31716;SDS011;18301;51.076;17.046;2023-05-29T17:25:37;6.72;;;4.40;;
31716;SDS011;18301;51.076;17.046;2023-05-29T17:30:38;9.20;;;3.80;;
31716;SDS011;18301;51.076;17.046;2023-05-29T17:35:40;6.07;;;3.65;;
31716;SDS011;18301;51.076;17.046;2023-05-29T17:40:41;5.03;;;3.40;;
31716;SDS011;18301;51.076;17.046;2023-05-29T17:45:43;9.00;;;4.03;;
31716;SDS011;18301;51.076;17.046;2023-05-29T17:50:47;6.88;;;3.50;;
31716;SDS011;18301;51.076;17.046;2023-05-29T17:55:48;7.38;;;3.83;;
31716;SDS011;18301;51.076;17.046;2023-05-29T18:00:50;8.90;;;3.75;;
31716;SDS011;18301;51.076;17.046;2023-05-29T18:05:52;7.75;;;4.00;;
31716;SDS011;18301;51.076;17.046;2023-05-29T18:10:55;8.85;;;4.25;;
31716;SDS011;18301;51.076;17.046;2023-05-29T18:15:57;8.57;;;4.03;;
31716;SDS011;18301;51.076;17.046;2023-05-29T18:20:58;7.68;;;3.75;;
31716;SDS011;18301;51.076;17.046;2023-05-29T18:26:00;8.10;;;4.68;;
31716;SDS011;18301;51.076;17.046;2023-05-29T18:31:02;8.43;;;3.72;;
31716;SDS011;18301;51.076;17.046;2023-05-29T18:36:03;7.82;;;4.22;;
31716;SDS011;18301;51.076;17.046;2023-05-29T18:41:05;9.10;;;4.35;;
31716;SDS011;18301;51.076;17.046;2023-05-29T18:46:07;9.57;;;3.90;;
31716;SDS011;18301;51.076;17.046;2023-05-29T18:51:09;7.57;;;4.03;;
31716;SDS011;18301;51.076;17.046;2023-05-29T18:56:11;6.20;;;3.78;;
31716;SDS011;18301;51.076;17.046;2023-05-29T19:01:13;7.70;;;3.72;;
31716;SDS011;18301;51.076;17.046;2023-05-29T19:06:32;6.82;;;3.75;;
31716;SDS011;18301;51.076;17.046;2023-05-29T19:11:33;8.77;;;4.15;;
31716;SDS011;18301;51.076;17.046;2023-05-29T19:16:35;7.60;;;3.70;;
31716;SDS011;18301;51.076;17.046;2023-05-29T19:21:36;6.97;;;4.00;;
31716;SDS011;18301;51.076;17.046;2023-05-29T19:26:40;6.30;;;4.07;;
31716;SDS011;18301;51.076;17.046;2023-05-29T19:31:42;7.50;;;3.85;;
31716;SDS011;18301;51.076;17.046;2023-05-29T19:36:44;7.72;;;4.35;;
31716;SDS011;18301;51.076;17.046;2023-05-29T19:41:45;8.98;;;4.10;;
31716;SDS011;18301;51.076;17.046;2023-05-29T19:46:47;7.97;;;4.53;;
31716;SDS011;18301;51.076;17.046;2023-05-29T19:51:52;11.85;;;4.97;;
31716;SDS011;18301;51.076;17.046;2023-05-29T19:56:59;7.93;;;4.70;;
31716;SDS011;18301;51.076;17.046;2023-05-29T20:02:01;7.35;;;4.25;;
31716;SDS011;18301;51.076;17.046;2023-05-29T20:07:03;11.38;;;4.03;;
31716;SDS011;18301;51.076;17.046;2023-05-29T20:12:04;8.43;;;4.10;;
31716;SDS011;18301;51.076;17.046;2023-05-29T20:17:07;8.68;;;3.88;;
31716;SDS011;18301;51.076;17.046;2023-05-29T20:22:08;8.95;;;3.65;;
31716;SDS011;18301;51.076;17.046;2023-05-29T20:27:10;9.20;;;4.13;;
31716;SDS011;18301;51.076;17.046;2023-05-29T20:32:12;5.63;;;3.75;;
31716;SDS011;18301;51.076;17.046;2023-05-29T20:37:13;5.40;;;3.60;;
31716;SDS011;18301;51.076;17.046;2023-05-29T20:42:15;7.80;;;3.88;;
31716;SDS011;18301;51.076;17.046;2023-05-29T20:47:18;7.22;;;4.45;;
31716;SDS011;18301;51.076;17.046;2023-05-29T20:52:19;8.10;;;3.67;;
31716;SDS011;18301;51.076;17.046;2023-05-29T20:57:22;8.63;;;3.95;;
31716;SDS011;18301;51.076;17.046;2023-05-29T21:02:23;7.38;;;3.67;;
31716;SDS011;18301;51.076;17.046;2023-05-29T21:07:25;6.18;;;3.88;;
31716;SDS011;18301;51.076;17.046;2023-05-29T21:12:35;5.72;;;3.65;;
31716;SDS011;18301;51.076;17.046;2023-05-29T21:17:37;8.50;;;3.63;;
31716;SDS011;18301;51.076;17.046;2023-05-29T21:22:38;6.53;;;3.75;;
31716;SDS011;18301;51.076;17.046;2023-05-29T21:27:40;6.18;;;3.92;;
31716;SDS011;18301;51.076;17.046;2023-05-29T21:32:42;7.35;;;3.90;;
31716;SDS011;18301;51.076;17.046;2023-05-29T21:37:43;8.88;;;4.45;;
31716;SDS011;18301;51.076;17.046;2023-05-29T21:42:48;6.63;;;4.18;;
31716;SDS011;18301;51.076;17.046;2023-05-29T21:47:51;5.97;;;4.20;;
31716;SDS011;18301;51.076;17.046;2023-05-29T21:52:55;7.60;;;4.30;;
31716;SDS011;18301;51.076;17.046;2023-05-29T21:57:56;5.65;;;3.72;;
31716;SDS011;18301;51.076;17.046;2023-05-29T22:02:58;5.45;;;3.83;;
31716;SDS011;18301;51.076;17.046;2023-05-29T22:08:00;6.63;;;4.25;;
31716;SDS011;18301;51.076;17.046;2023-05-29T22:13:01;7.90;;;4.15;;
31716;SDS011;18301;51.076;17.046;2023-05-29T22:18:03;7.05;;;4.22;;
31716;SDS011;18301;51.076;17.046;2023-05-29T22:23:05;6.82;;;4.00;;
31716;SDS011;18301;51.076;17.046;2023-05-29T22:28:18;8.50;;;3.97;;
31716;SDS011;18301;51.076;17.046;2023-05-29T22:33:19;7.65;;;4.10;;
31716;SDS011;18301;51.076;17.046;2023-05-29T22:38:22;9.95;;;4.35;;
31716;SDS011;18301;51.076;17.046;2023-05-29T22:43:23;7.47;;;3.90;;
31716;SDS011;18301;51.076;17.046;2023-05-29T22:48:24;8.90;;;4.32;;
31716;SDS011;18301;51.076;17.046;2023-05-29T22:53:27;8.55;;;4.00;;
31716;SDS011;18301;51.076;17.046;2023-05-29T22:58:28;7.82;;;4.10;;
31716;SDS011;18301;51.076;17.046;2023-05-29T23:03:30;10.23;;;3.92;;
31716;SDS011;18301;51.076;17.046;2023-05-29T23:08:32;7.85;;;3.95;;
31716;SDS011;18301;51.076;17.046;2023-05-29T23:13:33;7.30;;;4.00;;
31716;SDS011;18301;51.076;17.046;2023-05-29T23:18:35;6.82;;;3.83;;
31716;SDS011;18301;51.076;17.046;2023-05-29T23:23:37;7.75;;;3.65;;
31716;SDS011;18301;51.076;17.046;2023-05-29T23:28:38;9.48;;;3.92;;
31716;SDS011;18301;51.076;17.046;2023-05-29T23:33:41;7.95;;;4.15;;
31716;SDS011;18301;51.076;17.046;2023-05-29T23:38:43;11.38;;;4.53;;
31716;SDS011;18301;51.076;17.046;2023-05-29T23:43:44;9.35;;;4.00;;
31716;SDS011;18301;51.076;17.046;2023-05-29T23:48:46;6.70;;;3.65;;
31716;SDS011;18301;51.076;17.046;2023-05-29T23:53:48;7.03;;;3.85;;
31716;SDS011;18301;51.076;17.046;2023-05-29T23:58:50;6.57;;;3.40;;
